sensor_id;sensor_type;location;lat;lon;timestamp;pressure;altitude;pressure_sealevel;temperature;humidity
50484;BME280;36409;52.168;20.878;2023-02-28T00:00:46;101987.89;;;-5.12;60.41
50484;BME280;36409;52.168;20.878;2023-02-28T00:03:22;101990.86;;;-5.18;60.69
50484;BME280;36409;52.168;20.878;2023-02-28T00:05:53;101998.16;;;-5.22;60.67
50484;BME280;36409;52.168;20.878;2023-02-28T00:08:22;101996.52;;;-5.22;60.64
50484;BME280;36409;52.168;20.878;2023-02-28T00:10:51;101999.59;;;-5.26;60.78
50484;BME280;36409;52.168;20.878;2023-02-28T00:13:20;101994.91;;;-5.32;60.81
50484;BME280;36409;52.168;20.878;2023-02-28T00:16:00;102000.66;;;-5.34;61.21
50484;BME280;36409;52.168;20.878;2023-02-28T00:18:29;101999.80;;;-5.35;61.21
50484;BME280;36409;52.168;20.878;2023-02-28T00:20:59;102004.89;;;-5.35;61.20
50484;BME280;36409;52.168;20.878;2023-02-28T00:23:28;101999.80;;;-5.35;61.10
50484;BME280;36409;52.168;20.878;2023-02-28T00:25:58;102005.66;;;-5.36;61.37
50484;BME280;36409;52.168;20.878;2023-02-28T00:28:27;102006.94;;;-5.41;61.10
50484;BME280;36409;52.168;20.878;2023-02-28T00:30:56;102008.27;;;-5.46;61.15
50484;BME280;36409;52.168;20.878;2023-02-28T00:33:26;102009.45;;;-5.53;61.41
50484;BME280;36409;52.168;20.878;2023-02-28T00:36:03;102006.55;;;-5.57;61.32
50484;BME280;36409;52.168;20.878;2023-02-28T00:38:33;102008.84;;;-5.61;61.46
50484;BME280;36409;52.168;20.878;2023-02-28T00:41:03;102006.30;;;-5.61;61.64
50484;BME280;36409;52.168;20.878;2023-02-28T00:43:35;102005.39;;;-5.61;61.23
50484;BME280;36409;52.168;20.878;2023-02-28T00:46:06;102002.85;;;-5.61;61.81
50484;BME280;36409;52.168;20.878;2023-02-28T00:48:36;102005.04;;;-5.66;61.65
50484;BME280;36409;52.168;20.878;2023-02-28T00:51:06;102005.59;;;-5.70;61.74
50484;BME280;36409;52.168;20.878;2023-02-28T00:53:35;102002.03;;;-5.72;61.38
50484;BME280;36409;52.168;20.878;2023-02-28T00:56:05;102006.22;;;-5.72;62.02
50484;BME280;36409;52.168;20.878;2023-02-28T00:58:34;102005.23;;;-5.75;61.68
50484;BME280;36409;52.168;20.878;2023-02-28T01:01:04;102000.91;;;-5.76;62.25
50484;BME280;36409;52.168;20.878;2023-02-28T01:03:34;102000.15;;;-5.75;62.19
50484;BME280;36409;52.168;20.878;2023-02-28T01:06:04;102008.66;;;-5.74;62.05
50484;BME280;36409;52.168;20.878;2023-02-28T01:08:33;102001.89;;;-5.74;62.04
50484;BME280;36409;52.168;20.878;2023-02-28T01:11:09;102003.56;;;-5.74;62.26
50484;BME280;36409;52.168;20.878;2023-02-28T01:13:41;102000.91;;;-5.76;62.04
50484;BME280;36409;52.168;20.878;2023-02-28T01:16:14;101997.88;;;-5.82;62.24
50484;BME280;36409;52.168;20.878;2023-02-28T01:18:48;101997.77;;;-5.83;62.08
50484;BME280;36409;52.168;20.878;2023-02-28T01:21:20;101996.64;;;-5.87;61.69
50484;BME280;36409;52.168;20.878;2023-02-28T01:23:50;102003.01;;;-5.92;62.03
50484;BME280;36409;52.168;20.878;2023-02-28T01:26:22;102000.11;;;-5.97;62.40
50484;BME280;36409;52.168;20.878;2023-02-28T01:28:52;102001.41;;;-6.02;61.86
50484;BME280;36409;52.168;20.878;2023-02-28T01:31:23;101996.22;;;-6.03;61.91
50484;BME280;36409;52.168;20.878;2023-02-28T01:33:52;101998.77;;;-6.03;62.54
50484;BME280;36409;52.168;20.878;2023-02-28T01:36:23;102002.07;;;-6.05;62.35
50484;BME280;36409;52.168;20.878;2023-02-28T01:38:53;102003.84;;;-6.03;62.20
50484;BME280;36409;52.168;20.878;2023-02-28T01:41:24;102008.06;;;-6.04;62.57
50484;BME280;36409;52.168;20.878;2023-02-28T01:44:03;102001.81;;;-6.08;62.26
50484;BME280;36409;52.168;20.878;2023-02-28T01:46:34;102005.92;;;-6.10;62.57
50484;BME280;36409;52.168;20.878;2023-02-28T01:49:10;102011.88;;;-6.09;62.57
50484;BME280;36409;52.168;20.878;2023-02-28T01:51:45;102006.54;;;-6.12;62.45
50484;BME280;36409;52.168;20.878;2023-02-28T01:54:23;102000.33;;;-6.16;62.73
50484;BME280;36409;52.168;20.878;2023-02-28T01:56:56;102011.52;;;-6.14;62.93
50484;BME280;36409;52.168;20.878;2023-02-28T01:59:29;102008.86;;;-6.15;62.86
50484;BME280;36409;52.168;20.878;2023-02-28T02:01:58;102006.17;;;-6.17;62.34
50484;BME280;36409;52.168;20.878;2023-02-28T02:04:34;102004.28;;;-6.19;62.68
50484;BME280;36409;52.168;20.878;2023-02-28T02:07:06;101999.86;;;-6.22;62.91
50484;BME280;36409;52.168;20.878;2023-02-28T02:09:36;102003.81;;;-6.26;62.83
50484;BME280;36409;52.168;20.878;2023-02-28T02:12:10;102007.12;;;-6.27;62.50
50484;BME280;36409;52.168;20.878;2023-02-28T02:14:55;101999.23;;;-6.30;62.75
50484;BME280;36409;52.168;20.878;2023-02-28T02:17:34;101999.23;;;-6.30;63.08
50484;BME280;36409;52.168;20.878;2023-02-28T02:35:52;102007.37;;;-6.34;62.91
50484;BME280;36409;52.168;20.878;2023-02-28T02:38:31;102003.19;;;-6.33;63.06
50484;BME280;36409;52.168;20.878;2023-02-28T02:41:09;102015.91;;;-6.33;62.79
50484;BME280;36409;52.168;20.878;2023-02-28T02:43:46;101997.96;;;-6.35;62.84
50484;BME280;36409;52.168;20.878;2023-02-28T02:46:29;102009.54;;;-6.39;62.72
50484;BME280;36409;52.168;20.878;2023-02-28T02:49:07;102013.61;;;-6.41;63.41
50484;BME280;36409;52.168;20.878;2023-02-28T02:51:37;102012.73;;;-6.41;62.98
50484;BME280;36409;52.168;20.878;2023-02-28T02:54:11;102022.90;;;-6.41;63.15
50484;BME280;36409;52.168;20.878;2023-02-28T02:56:48;102019.48;;;-6.42;63.48
50484;BME280;36409;52.168;20.878;2023-02-28T02:59:22;102022.78;;;-6.43;62.99
50484;BME280;36409;52.168;20.878;2023-02-28T03:01:54;102024.95;;;-6.47;62.85
50484;BME280;36409;52.168;20.878;2023-02-28T03:04:29;102019.47;;;-6.52;63.24
50484;BME280;36409;52.168;20.878;2023-02-28T03:07:00;102018.34;;;-6.56;62.99
50484;BME280;36409;52.168;20.878;2023-02-28T03:09:29;102018.88;;;-6.60;62.96
50484;BME280;36409;52.168;20.878;2023-02-28T03:12:01;102021.27;;;-6.61;63.61
50484;BME280;36409;52.168;20.878;2023-02-28T03:14:41;102025.48;;;-6.62;63.69
50484;BME280;36409;52.168;20.878;2023-02-28T03:17:25;102022.94;;;-6.62;63.74
50484;BME280;36409;52.168;20.878;2023-02-28T03:20:07;102023.05;;;-6.60;63.23
50484;BME280;36409;52.168;20.878;2023-02-28T03:22:48;102024.83;;;-6.59;63.71
50484;BME280;36409;52.168;20.878;2023-02-28T03:25:31;102019.75;;;-6.59;63.33
50484;BME280;36409;52.168;20.878;2023-02-28T03:28:09;102018.88;;;-6.60;63.24
50484;BME280;36409;52.168;20.878;2023-02-28T03:30:49;102029.65;;;-6.62;63.16
50484;BME280;36409;52.168;20.878;2023-02-28T03:33:26;102022.67;;;-6.65;63.21
50484;BME280;36409;52.168;20.878;2023-02-28T03:36:00;102025.86;;;-6.68;63.30
50484;BME280;36409;52.168;20.878;2023-02-28T03:38:35;102026.63;;;-6.69;63.95
50484;BME280;36409;52.168;20.878;2023-02-28T03:41:12;102032.46;;;-6.70;63.75
50484;BME280;36409;52.168;20.878;2023-02-28T03:43:46;102031.44;;;-6.72;63.30
50484;BME280;36409;52.168;20.878;2023-02-28T03:46:21;102031.59;;;-6.70;63.44
50484;BME280;36409;52.168;20.878;2023-02-28T03:48:55;102035.88;;;-6.69;64.02
50484;BME280;36409;52.168;20.878;2023-02-28T03:51:27;102038.30;;;-6.71;63.78
50484;BME280;36409;52.168;20.878;2023-02-28T03:53:59;102031.59;;;-6.70;64.00
50484;BME280;36409;52.168;20.878;2023-02-28T03:56:34;102038.56;;;-6.68;64.18
50484;BME280;36409;52.168;20.878;2023-02-28T03:59:10;102038.68;;;-6.66;64.29
50484;BME280;36409;52.168;20.878;2023-02-28T04:01:45;102039.59;;;-6.65;64.23
50484;BME280;36409;52.168;20.878;2023-02-28T04:04:18;102041.10;;;-6.68;63.98
50484;BME280;36409;52.168;20.878;2023-02-28T04:06:50;102040.08;;;-6.70;64.20
50484;BME280;36409;52.168;20.878;2023-02-28T04:09:20;102042.36;;;-6.73;63.66
50484;BME280;36409;52.168;20.878;2023-02-28T04:11:52;102040.73;;;-6.72;64.36
50484;BME280;36409;52.168;20.878;2023-02-28T04:14:23;102040.73;;;-6.72;64.36
50484;BME280;36409;52.168;20.878;2023-02-28T04:16:53;102035.65;;;-6.72;63.85
50484;BME280;36409;52.168;20.878;2023-02-28T04:19:23;102035.77;;;-6.71;64.53
50484;BME280;36409;52.168;20.878;2023-02-28T04:21:56;102045.05;;;-6.71;63.94
50484;BME280;36409;52.168;20.878;2023-02-28T04:24:27;102046.42;;;-6.75;64.22
50484;BME280;36409;52.168;20.878;2023-02-28T04:26:57;102040.09;;;-6.80;63.95
50484;BME280;36409;52.168;20.878;2023-02-28T04:29:29;102041.87;;;-6.79;64.15
50484;BME280;36409;52.168;20.878;2023-02-28T04:32:00;102041.87;;;-6.79;64.66
50484;BME280;36409;52.168;20.878;2023-02-28T04:34:32;102048.73;;;-6.78;64.71
50484;BME280;36409;52.168;20.878;2023-02-28T04:37:02;102048.84;;;-6.76;64.13
50484;BME280;36409;52.168;20.878;2023-02-28T04:39:42;102049.61;;;-6.77;64.25
50484;BME280;36409;52.168;20.878;2023-02-28T04:42:13;102049.34;;;-6.80;64.58
50484;BME280;36409;52.168;20.878;2023-02-28T04:44:42;102051.88;;;-6.80;64.10
50484;BME280;36409;52.168;20.878;2023-02-28T04:47:12;102051.13;;;-6.79;64.82
50484;BME280;36409;52.168;20.878;2023-02-28T04:49:47;102052.03;;;-6.79;64.09
50484;BME280;36409;52.168;20.878;2023-02-28T04:52:16;102043.50;;;-6.79;64.43
50484;BME280;36409;52.168;20.878;2023-02-28T04:54:45;102043.65;;;-6.78;64.19
50484;BME280;36409;52.168;20.878;2023-02-28T04:57:15;102049.48;;;-6.79;64.44
50484;BME280;36409;52.168;20.878;2023-02-28T04:59:44;102046.95;;;-6.79;64.66
50484;BME280;36409;52.168;20.878;2023-02-28T05:02:14;102046.95;;;-6.79;64.98
50484;BME280;36409;52.168;20.878;2023-02-28T05:04:45;102056.20;;;-6.79;64.48
50484;BME280;36409;52.168;20.878;2023-02-28T05:07:14;102057.11;;;-6.79;65.06
50484;BME280;36409;52.168;20.878;2023-02-28T05:09:44;102055.33;;;-6.80;65.04
50484;BME280;36409;52.168;20.878;2023-02-28T05:12:13;102056.96;;;-6.80;64.57
50484;BME280;36409;52.168;20.878;2023-02-28T05:14:45;102062.04;;;-6.80;64.61
50484;BME280;36409;52.168;20.878;2023-02-28T05:17:15;102062.95;;;-6.80;64.63
50484;BME280;36409;52.168;20.878;2023-02-28T05:19:45;102064.58;;;-6.80;65.17
50484;BME280;36409;52.168;20.878;2023-02-28T05:22:16;102073.22;;;-6.78;65.18
50484;BME280;36409;52.168;20.878;2023-02-28T05:24:46;102071.20;;;-6.83;64.47
50484;BME280;36409;52.168;20.878;2023-02-28T05:27:15;102077.66;;;-6.86;64.59
50484;BME280;36409;52.168;20.878;2023-02-28T05:29:45;102078.19;;;-6.90;65.04
50484;BME280;36409;52.168;20.878;2023-02-28T05:32:15;102077.16;;;-6.92;64.56
50484;BME280;36409;52.168;20.878;2023-02-28T05:34:45;102080.45;;;-6.93;64.70
50484;BME280;36409;52.168;20.878;2023-02-28T05:37:15;102084.78;;;-6.92;64.64
50484;BME280;36409;52.168;20.878;2023-02-28T05:39:46;102077.16;;;-6.92;65.25
50484;BME280;36409;52.168;20.878;2023-02-28T05:42:15;102087.70;;;-6.88;64.85
50484;BME280;36409;52.168;20.878;2023-02-28T05:44:45;102090.63;;;-6.83;65.36
50484;BME280;36409;52.168;20.878;2023-02-28T05:47:14;102090.13;;;-6.79;65.06
50484;BME280;36409;52.168;20.878;2023-02-28T05:49:46;102098.02;;;-6.76;65.44
50484;BME280;36409;52.168;20.878;2023-02-28T05:52:16;102093.43;;;-6.70;64.96
50484;BME280;36409;52.168;20.878;2023-02-28T05:54:47;102097.11;;;-6.66;65.59
50484;BME280;36409;52.168;20.878;2023-02-28T05:57:17;102100.03;;;-6.61;65.06
50484;BME280;36409;52.168;20.878;2023-02-28T06:00:03;102110.34;;;-6.60;65.35
50484;BME280;36409;52.168;20.878;2023-02-28T06:02:39;102099.53;;;-6.57;65.55
50484;BME280;36409;52.168;20.878;2023-02-28T06:05:14;102106.66;;;-6.53;65.08
50484;BME280;36409;52.168;20.878;2023-02-28T06:07:46;102106.89;;;-6.50;65.38
50484;BME280;36409;52.168;20.878;2023-02-28T06:10:16;102112.50;;;-6.44;65.51
50484;BME280;36409;52.168;20.878;2023-02-28T06:12:46;102108.05;;;-6.36;65.29
50484;BME280;36409;52.168;20.878;2023-02-28T06:15:16;102112.22;;;-6.26;65.36
50484;BME280;36409;52.168;20.878;2023-02-28T06:17:46;102115.28;;;-6.20;65.93
50484;BME280;36409;52.168;20.878;2023-02-28T06:20:15;102109.66;;;-6.16;65.52
50484;BME280;36409;52.168;20.878;2023-02-28T06:22:46;102111.95;;;-6.09;65.75
50484;BME280;36409;52.168;20.878;2023-02-28T06:25:18;102115.86;;;-6.02;65.93
50484;BME280;36409;52.168;20.878;2023-02-28T06:27:48;102114.55;;;-5.97;65.29
50484;BME280;36409;52.168;20.878;2023-02-28T06:30:18;102118.48;;;-5.90;65.99
50484;BME280;36409;52.168;20.878;2023-02-28T06:32:53;102119.98;;;-5.82;65.84
50484;BME280;36409;52.168;20.878;2023-02-28T06:35:23;102117.19;;;-5.75;65.94
50484;BME280;36409;52.168;20.878;2023-02-28T06:37:52;102105.81;;;-5.68;66.15
50484;BME280;36409;52.168;20.878;2023-02-28T06:40:22;102106.57;;;-5.59;65.94
50484;BME280;36409;52.168;20.878;2023-02-28T06:42:54;102102.05;;;-5.51;65.79
50484;BME280;36409;52.168;20.878;2023-02-28T06:45:25;102108.00;;;-5.40;66.32
50484;BME280;36409;52.168;20.878;2023-02-28T06:47:56;102095.88;;;-5.32;66.06
50484;BME280;36409;52.168;20.878;2023-02-28T06:50:26;102100.92;;;-5.22;66.25
50484;BME280;36409;52.168;20.878;2023-02-28T06:53:00;102089.90;;;-5.10;66.24
50484;BME280;36409;52.168;20.878;2023-02-28T06:55:30;102095.03;;;-4.99;66.32
50484;BME280;36409;52.168;20.878;2023-02-28T06:57:59;102096.45;;;-4.80;66.57
50484;BME280;36409;52.168;20.878;2023-02-28T07:00:28;102091.44;;;-4.56;66.93
50484;BME280;36409;52.168;20.878;2023-02-28T07:03:00;102089.47;;;-4.37;66.86
50484;BME280;36409;52.168;20.878;2023-02-28T07:05:30;102083.26;;;-4.16;66.92
50484;BME280;36409;52.168;20.878;2023-02-28T07:08:09;102084.29;;;-4.02;66.93
50484;BME280;36409;52.168;20.878;2023-02-28T07:10:41;102078.63;;;-3.86;66.83
50484;BME280;36409;52.168;20.878;2023-02-28T07:13:12;102074.50;;;-3.73;66.68
50484;BME280;36409;52.168;20.878;2023-02-28T07:15:41;102073.82;;;-3.58;66.63
50484;BME280;36409;52.168;20.878;2023-02-28T07:18:13;102077.56;;;-3.41;66.60
50484;BME280;36409;52.168;20.878;2023-02-28T07:20:42;102082.75;;;-3.28;66.77
50484;BME280;36409;52.168;20.878;2023-02-28T07:23:13;102083.11;;;-3.10;66.51
50484;BME280;36409;52.168;20.878;2023-02-28T07:25:44;102076.48;;;-2.17;65.77
50484;BME280;36409;52.168;20.878;2023-02-28T07:28:14;102081.95;;;-0.43;64.23
50484;BME280;36409;52.168;20.878;2023-02-28T07:30:44;102080.78;;;1.43;64.72
50484;BME280;36409;52.168;20.878;2023-02-28T07:33:14;102076.33;;;2.85;63.61
50484;BME280;36409;52.168;20.878;2023-02-28T07:35:46;102065.27;;;5.30;62.13
50484;BME280;36409;52.168;20.878;2023-02-28T07:38:17;102059.34;;;6.71;61.52
50484;BME280;36409;52.168;20.878;2023-02-28T07:40:46;102055.61;;;7.58;61.01
50484;BME280;36409;52.168;20.878;2023-02-28T07:43:16;102048.39;;;9.03;59.59
50484;BME280;36409;52.168;20.878;2023-02-28T07:45:46;102049.97;;;10.59;59.13
50484;BME280;36409;52.168;20.878;2023-02-28T07:48:15;102053.26;;;11.21;57.88
50484;BME280;36409;52.168;20.878;2023-02-28T07:50:55;102050.27;;;11.74;57.44
50484;BME280;36409;52.168;20.878;2023-02-28T07:53:24;102053.56;;;11.52;56.07
50484;BME280;36409;52.168;20.878;2023-02-28T07:55:56;102051.13;;;11.77;55.75
50484;BME280;36409;52.168;20.878;2023-02-28T07:58:26;102046.40;;;12.56;54.78
50484;BME280;36409;52.168;20.878;2023-02-28T08:00:55;102046.64;;;13.46;53.99
50484;BME280;36409;52.168;20.878;2023-02-28T08:03:25;102050.02;;;14.34;54.69
50484;BME280;36409;52.168;20.878;2023-02-28T08:05:54;102039.75;;;15.51;52.83
50484;BME280;36409;52.168;20.878;2023-02-28T08:08:23;102041.05;;;16.03;50.94
50484;BME280;36409;52.168;20.878;2023-02-28T08:10:52;102050.31;;;17.07;50.75
50484;BME280;36409;52.168;20.878;2023-02-28T08:13:24;102048.38;;;17.73;49.75
50484;BME280;36409;52.168;20.878;2023-02-28T08:15:53;102050.20;;;18.62;48.99
50484;BME280;36409;52.168;20.878;2023-02-28T08:18:23;102050.31;;;18.58;48.56
50484;BME280;36409;52.168;20.878;2023-02-28T08:20:52;102052.70;;;17.24;48.93
50484;BME280;36409;52.168;20.878;2023-02-28T08:23:21;102050.97;;;15.72;50.17
50484;BME280;36409;52.168;20.878;2023-02-28T08:25:54;102052.77;;;13.72;50.00
50484;BME280;36409;52.168;20.878;2023-02-28T08:28:24;102052.70;;;11.56;49.40
50484;BME280;36409;52.168;20.878;2023-02-28T08:30:55;102057.79;;;9.96;50.54
50484;BME280;36409;52.168;20.878;2023-02-28T08:33:24;102061.74;;;8.75;50.53
50484;BME280;36409;52.168;20.878;2023-02-28T08:35:55;102061.34;;;7.80;51.17
50484;BME280;36409;52.168;20.878;2023-02-28T08:38:25;102057.23;;;6.88;50.42
50484;BME280;36409;52.168;20.878;2023-02-28T08:40:59;102063.36;;;6.03;50.92
50484;BME280;36409;52.168;20.878;2023-02-28T08:43:30;102075.97;;;5.40;51.24
50484;BME280;36409;52.168;20.878;2023-02-28T08:45:59;102066.70;;;4.97;51.58
50484;BME280;36409;52.168;20.878;2023-02-28T08:48:30;102064.88;;;5.19;50.66
50484;BME280;36409;52.168;20.878;2023-02-28T08:51:00;102065.51;;;5.63;50.46
50484;BME280;36409;52.168;20.878;2023-02-28T08:53:36;102066.94;;;5.03;51.14
50484;BME280;36409;52.168;20.878;2023-02-28T08:56:08;102070.30;;;4.54;51.78
50484;BME280;36409;52.168;20.878;2023-02-28T08:58:37;102062.52;;;4.08;51.63
50484;BME280;36409;52.168;20.878;2023-02-28T09:01:11;102079.01;;;3.68;51.95
50484;BME280;36409;52.168;20.878;2023-02-28T09:03:40;102077.64;;;3.35;51.84
50484;BME280;36409;52.168;20.878;2023-02-28T09:06:10;102080.00;;;3.09;52.08
50484;BME280;36409;52.168;20.878;2023-02-28T09:08:41;102079.42;;;2.77;51.69
50484;BME280;36409;52.168;20.878;2023-02-28T09:11:11;102080.16;;;2.55;51.78
50484;BME280;36409;52.168;20.878;2023-02-28T09:13:41;102081.20;;;2.41;52.00
50484;BME280;36409;52.168;20.878;2023-02-28T09:16:13;102083.63;;;2.38;52.08
50484;BME280;36409;52.168;20.878;2023-02-28T09:18:46;102086.91;;;2.91;52.53
50484;BME280;36409;52.168;20.878;2023-02-28T09:21:17;102080.21;;;5.90;49.17
50484;BME280;36409;52.168;20.878;2023-02-28T09:23:49;102076.92;;;8.54;46.89
50484;BME280;36409;52.168;20.878;2023-02-28T09:26:20;102077.95;;;10.71;46.44
50484;BME280;36409;52.168;20.878;2023-02-28T09:28:51;102065.40;;;12.14;44.34
50484;BME280;36409;52.168;20.878;2023-02-28T09:31:23;102069.33;;;13.34;43.24
50484;BME280;36409;52.168;20.878;2023-02-28T09:33:55;102069.23;;;14.52;43.52
50484;BME280;36409;52.168;20.878;2023-02-28T09:36:28;102061.67;;;15.49;42.72
50484;BME280;36409;52.168;20.878;2023-02-28T09:39:12;102058.62;;;16.00;40.82
50484;BME280;36409;52.168;20.878;2023-02-28T09:41:45;102061.25;;;16.00;40.36
50484;BME280;36409;52.168;20.878;2023-02-28T09:44:24;102060.39;;;15.99;39.59
50484;BME280;36409;52.168;20.878;2023-02-28T09:46:58;102064.55;;;16.22;39.87
50484;BME280;36409;52.168;20.878;2023-02-28T09:49:38;102060.17;;;16.21;39.74
50484;BME280;36409;52.168;20.878;2023-02-28T09:52:12;102063.23;;;16.60;39.77
50484;BME280;36409;52.168;20.878;2023-02-28T09:54:42;102056.98;;;16.67;39.14
50484;BME280;36409;52.168;20.878;2023-02-28T09:57:19;102066.11;;;17.10;39.91
50484;BME280;36409;52.168;20.878;2023-02-28T10:00:02;102056.66;;;16.92;38.76
50484;BME280;36409;52.168;20.878;2023-02-28T10:03:06;102063.02;;;16.76;38.72
50484;BME280;36409;52.168;20.878;2023-02-28T10:05:49;102061.70;;;16.42;39.20
50484;BME280;36409;52.168;20.878;2023-02-28T10:08:23;102059.44;;;16.08;39.22
50484;BME280;36409;52.168;20.878;2023-02-28T10:10:57;102063.70;;;15.12;39.53
50484;BME280;36409;52.168;20.878;2023-02-28T10:13:32;102067.64;;;13.70;39.72
50484;BME280;36409;52.168;20.878;2023-02-28T10:16:06;102069.89;;;12.37;41.17
50484;BME280;36409;52.168;20.878;2023-02-28T10:18:43;102069.26;;;11.52;42.29
50484;BME280;36409;52.168;20.878;2023-02-28T10:21:19;102075.39;;;10.72;43.09
50484;BME280;36409;52.168;20.878;2023-02-28T10:23:50;102073.82;;;10.22;43.85
50484;BME280;36409;52.168;20.878;2023-02-28T10:26:24;102065.36;;;9.80;45.54
50484;BME280;36409;52.168;20.878;2023-02-28T10:28:57;102069.87;;;9.38;45.56
50484;BME280;36409;52.168;20.878;2023-02-28T10:31:26;102067.29;;;8.92;45.36
50484;BME280;36409;52.168;20.878;2023-02-28T10:33:56;102077.20;;;8.68;45.65
50484;BME280;36409;52.168;20.878;2023-02-28T10:36:26;102065.61;;;8.53;46.28
50484;BME280;36409;52.168;20.878;2023-02-28T10:38:58;102071.90;;;8.25;46.64
50484;BME280;36409;52.168;20.878;2023-02-28T10:41:29;102067.49;;;8.21;47.20
50484;BME280;36409;52.168;20.878;2023-02-28T10:44:15;102069.05;;;7.77;46.03
50484;BME280;36409;52.168;20.878;2023-02-28T10:46:46;102071.97;;;7.21;45.92
50484;BME280;36409;52.168;20.878;2023-02-28T10:49:21;102072.25;;;7.00;46.57
50484;BME280;36409;52.168;20.878;2023-02-28T10:51:53;102071.01;;;6.85;46.64
50484;BME280;36409;52.168;20.878;2023-02-28T10:54:29;102077.52;;;6.71;47.00
50484;BME280;36409;52.168;20.878;2023-02-28T10:57:18;102072.06;;;6.61;46.82
50484;BME280;36409;52.168;20.878;2023-02-28T10:59:51;102073.02;;;6.36;46.73
50484;BME280;36409;52.168;20.878;2023-02-28T11:02:33;102063.81;;;6.17;47.27
50484;BME280;36409;52.168;20.878;2023-02-28T11:05:02;102058.39;;;6.09;47.25
50484;BME280;36409;52.168;20.878;2023-02-28T11:07:53;102060.33;;;6.16;47.96
50484;BME280;36409;52.168;20.878;2023-02-28T11:10:25;102059.36;;;6.13;47.47
50484;BME280;36409;52.168;20.878;2023-02-28T11:12:57;102056.06;;;5.91;46.68
50484;BME280;36409;52.168;20.878;2023-02-28T11:15:31;102049.09;;;5.63;47.10
50484;BME280;36409;52.168;20.878;2023-02-28T11:18:23;102047.34;;;5.62;47.78
50484;BME280;36409;52.168;20.878;2023-02-28T11:20:55;102042.59;;;5.76;47.97
50484;BME280;36409;52.168;20.878;2023-02-28T11:23:26;102040.50;;;5.64;47.45
50484;BME280;36409;52.168;20.878;2023-02-28T11:26:03;102033.55;;;5.63;47.91
50484;BME280;36409;52.168;20.878;2023-02-28T11:28:41;102042.87;;;5.57;47.83
50484;BME280;36409;52.168;20.878;2023-02-28T11:31:19;102037.69;;;5.57;47.96
50484;BME280;36409;52.168;20.878;2023-02-28T11:33:54;102026.56;;;5.60;48.13
50484;BME280;36409;52.168;20.878;2023-02-28T11:36:32;102024.91;;;5.62;48.23
50484;BME280;36409;52.168;20.878;2023-02-28T11:39:10;102030.14;;;5.64;48.22
50484;BME280;36409;52.168;20.878;2023-02-28T11:41:55;102018.88;;;5.63;47.92
50484;BME280;36409;52.168;20.878;2023-02-28T11:44:47;102009.94;;;5.53;48.12
50484;BME280;36409;52.168;20.878;2023-02-28T11:47:32;102009.69;;;5.46;48.05
50484;BME280;36409;52.168;20.878;2023-02-28T11:50:18;102009.57;;;5.43;48.09
50484;BME280;36409;52.168;20.878;2023-02-28T11:52:53;102008.75;;;5.44;47.98
50484;BME280;36409;52.168;20.878;2023-02-28T11:55:27;101992.80;;;5.31;48.23
50484;BME280;36409;52.168;20.878;2023-02-28T11:58:20;101995.98;;;5.22;48.29
50484;BME280;36409;52.168;20.878;2023-02-28T12:01:07;101987.16;;;5.17;48.22
50484;BME280;36409;52.168;20.878;2023-02-28T12:03:48;101988.47;;;5.04;47.57
50484;BME280;36409;52.168;20.878;2023-02-28T12:06:22;101988.51;;;5.06;48.01
50484;BME280;36409;52.168;20.878;2023-02-28T12:09:08;101991.99;;;5.06;48.30
50484;BME280;36409;52.168;20.878;2023-02-28T12:11:51;101990.11;;;5.02;48.32
50484;BME280;36409;52.168;20.878;2023-02-28T12:14:46;101984.62;;;4.93;48.27
50484;BME280;36409;52.168;20.878;2023-02-28T12:17:27;101980.31;;;4.93;48.50
50484;BME280;36409;52.168;20.878;2023-02-28T12:20:08;101980.12;;;4.87;48.51
50484;BME280;36409;52.168;20.878;2023-02-28T12:23:00;101981.72;;;4.84;48.73
50484;BME280;36409;52.168;20.878;2023-02-28T12:26:06;101979.84;;;4.79;48.12
50484;BME280;36409;52.168;20.878;2023-02-28T12:28:51;101966.47;;;4.67;48.08
50484;BME280;36409;52.168;20.878;2023-02-28T12:32:06;101961.02;;;4.35;47.74
50484;BME280;36409;52.168;20.878;2023-02-28T12:35:21;101959.91;;;4.28;48.03
50484;BME280;36409;52.168;20.878;2023-02-28T12:37:57;101957.27;;;4.27;48.36
50484;BME280;36409;52.168;20.878;2023-02-28T12:40:42;101959.95;;;4.30;49.12
50484;BME280;36409;52.168;20.878;2023-02-28T12:43:17;101955.51;;;4.26;48.35
50484;BME280;36409;52.168;20.878;2023-02-28T12:45:49;101953.75;;;4.25;48.74
50484;BME280;36409;52.168;20.878;2023-02-28T12:48:26;101948.58;;;4.25;49.05
50484;BME280;36409;52.168;20.878;2023-02-28T12:50:56;101942.95;;;4.12;48.92
50484;BME280;36409;52.168;20.878;2023-02-28T12:53:30;101947.22;;;4.12;48.77
50484;BME280;36409;52.168;20.878;2023-02-28T12:56:15;101945.28;;;4.06;48.75
50484;BME280;36409;52.168;20.878;2023-02-28T12:58:49;101948.59;;;4.02;49.17
50484;BME280;36409;52.168;20.878;2023-02-28T13:01:44;101942.31;;;3.95;48.67
50484;BME280;36409;52.168;20.878;2023-02-28T13:04:34;101951.09;;;3.78;48.80
50484;BME280;36409;52.168;20.878;2023-02-28T13:07:29;101948.11;;;3.67;48.86
50484;BME280;36409;52.168;20.878;2023-02-28T13:10:05;101945.03;;;3.54;48.58
50484;BME280;36409;52.168;20.878;2023-02-28T13:12:36;101936.84;;;3.44;49.44
50484;BME280;36409;52.168;20.878;2023-02-28T13:15:22;101941.55;;;3.31;48.78
50484;BME280;36409;52.168;20.878;2023-02-28T13:17:54;101937.74;;;3.23;49.35
50484;BME280;36409;52.168;20.878;2023-02-28T13:20:28;101931.39;;;3.15;48.94
50484;BME280;36409;52.168;20.878;2023-02-28T13:23:00;101940.52;;;3.06;49.19
50484;BME280;36409;52.168;20.878;2023-02-28T13:25:54;101933.27;;;2.98;49.04
50484;BME280;36409;52.168;20.878;2023-02-28T13:35:14;101934.27;;;3.01;49.64
50484;BME280;36409;52.168;20.878;2023-02-28T13:37:46;101922.63;;;2.90;49.81
50484;BME280;36409;52.168;20.878;2023-02-28T13:40:32;101924.06;;;2.83;50.31